Sunday, November 17, 2019, 3:44 PM EST
Back to Local

KPBG, Plattsburgh International Airport

Location: Plattsburgh, NY, United States Lat: 44.65
Local Time: 3:44 PM EST (20:44 GMT) Lon: -73.467
Time Zone: US/Eastern Elev: 239 ft

Show me the last for .
Show Coded

Time T Td Feel RH Dir Speed Gust Alt SLP Vis Weather Sky Remarks
2019-11-17 14:53 34 11 27 37 170° 9 - 30.29 30.30 10 CLR None
2019-11-17 13:53 34 15 28 45 170° 7 - 30.30 30.31 10 CLR None
2019-11-17 12:53 30 18 22 60 140° 8 - 30.33 30.35 10 CLR 1-hr Precip Total: Trace
6-hr Precip Total (1pm): 0.00"
6-hr Min Temp (1pm): 3.0°F
6-hr Max Temp (1pm): 30.0°F
2019-11-17 10:53 24 12 18 59 180° 5 - 30.42 30.43 10 CLR None
2019-11-17 09:53 21 13 - 70 - Calm - 30.44 30.46 10 CLR None
2019-11-17 09:13 13 9 - 83 - Calm - 30.45 - 10 FEW010 None
2019-11-17 08:53 11 7 - 83 - Calm - 30.46 30.47 10 OVC011 None
2019-11-17 08:16 6 3 - 86 - Calm - 30.46 - 10 BKN013 None
2019-11-17 07:53 5 1 - 83 - Calm - 30.47 30.49 10 CLR None
2019-11-17 06:53 4 1 - 87 - Calm - 30.48 30.50 10 CLR 6-hr Min Temp (7am): 3.0°F
6-hr Max Temp (7am): 7.0°F
2019-11-17 05:53 3 0 - 86 - Calm - 30.49 30.50 10 CLR None
2019-11-17 04:53 4 0 - 83 - Calm - 30.48 30.50 10 CLR None
2019-11-17 03:53 6 1 - 79 - Calm - 30.50 30.51 10 CLR None
2019-11-17 02:53 6 2 - 82 - Calm - 30.51 30.52 10 CLR None
2019-11-17 01:53 5 1 - 83 - Calm - 30.52 30.53 10 CLR None
2019-11-17 00:53 6 2 - 82 - Calm - 30.53 30.55 10 CLR 6-hr Min Temp (1am): 6.1°F
6-hr Max Temp (1am): 18.0°F
2019-11-16 23:53 8 2 - 75 - Calm - 30.55 30.57 10 CLR 24-hr Min Temp (12am): 5.0°F
24-hr Max Temp (12am): 25.0°F
2019-11-16 22:53 10 2 - 69 - Calm - 30.57 30.58 10 CLR None
2019-11-16 21:53 11 3 - 69 - Calm - 30.58 30.60 10 CLR None
2019-11-16 20:53 12 6 - 76 - Calm - 30.59 30.60 10 CLR None
2019-11-16 19:53 16 4 9 58 300° 5 - 30.59 30.61 10 CLR None
2019-11-16 18:53 17 4 8 55 320° 7 - 30.59 30.61 10 CLR 6-hr Min Temp (7pm): 17.1°F
6-hr Max Temp (7pm): 25.0°F
2019-11-16 17:53 18 4 7 53 340° 9 - 30.59 30.60 10 CLR None
2019-11-16 16:53 19 4 9 50 360° 8 - 30.58 30.59 10 CLR None
2019-11-16 15:53 23 6 16 47 40° 6 - 30.58 30.59 10 CLR None

Support USWX by starting your Amazon purchase here.